Time;durP1;ratioP1;P1;durP2;ratioP2;P2;SDS_P1;SDS_P2;PMS_P1;PMS_P2;Temp;Humidity;BMP_temperature;BMP_pressure;BME280_temperature;BME280_humidity;BME280_pressure;Samples;Min_cycle;Max_cycle;Signal;HPM_P1;HPM_P2
2021/11/12 00:12:27;;;;;;;81.63;19.90;;;;;;;-145.18;100.00;60484.78;5064617;28;20173;-68
2021/11/12 00:14:55;;;;;;;71.73;19.60;;;;;;;-145.18;100.00;60484.78;5066413;28;20039;-68
2021/11/12 00:17:23;;;;;;;85.70;20.50;;;;;;;-145.18;100.00;60484.78;5077394;28;20028;-68
2021/11/12 00:19:50;;;;;;;78.47;20.83;;;;;;;-145.18;100.00;60484.78;5078466;28;20055;-68
2021/11/12 00:22:17;;;;;;;78.47;19.80;;;;;;;-145.18;100.00;60484.78;5080644;28;20108;-68
2021/11/12 00:24:42;;;;;;;72.87;19.73;;;;;;;-145.18;100.00;60484.78;5076384;28;20043;-68
2021/11/12 00:27:09;;;;;;;65.67;18.40;;;;;;;-145.18;100.00;60484.78;5079437;28;20024;-70
2021/11/12 00:29:50;;;;;;;79.33;20.47;;;;;;;-145.18;100.00;60484.78;5078393;28;20140;-68
2021/11/12 00:32:23;;;;;;;79.83;20.93;;;;;;;-145.18;100.00;60484.78;5075672;28;20396;-68
2021/11/12 00:38:06;;;;;;;74.43;21.17;;;;;;;-145.18;100.00;60484.78;4998022;28;20459;-68
2021/11/12 00:43:27;;;;;;;66.57;18.43;;;;;;;-145.18;100.00;60484.78;5007150;28;20021;-68
2021/11/12 00:46:05;;;;;;;74.83;20.33;;;;;;;-145.18;100.00;60484.78;5005820;28;20056;-69
2021/11/12 00:48:34;;;;;;;79.70;20.03;;;;;;;-145.18;100.00;60484.78;5000300;28;20112;-68
2021/11/12 00:56:29;;;;;;;63.92;19.88;;;;;;;-145.18;100.00;60484.78;4943250;28;20069;-68
2021/11/12 00:58:58;;;;;;;64.67;19.53;;;;;;;-145.18;100.00;60484.78;4940846;28;20079;-68
2021/11/12 01:01:30;;;;;;;56.87;18.43;;;;;;;-145.18;100.00;60484.78;4939459;28;20066;-68
2021/11/12 01:03:56;;;;;;;62.97;19.95;;;;;;;-145.18;100.00;60484.78;4935771;29;20162;-68
2021/11/12 01:06:22;;;;;;;52.03;17.93;;;;;;;-145.18;100.00;60484.78;4921553;29;20118;-68
2021/11/12 01:08:48;;;;;;;53.37;18.30;;;;;;;-145.18;100.00;60484.78;4915839;29;20221;-68
2021/11/12 01:11:15;;;;;;;57.50;18.17;;;;;;;-145.18;100.00;60484.78;4919714;29;20209;-68
2021/11/12 01:13:42;;;;;;;60.10;18.27;;;;;;;-145.18;100.00;60484.78;4936403;28;20713;-68
2021/11/12 01:16:08;;;;;;;52.87;17.33;;;;;;;-145.18;100.00;60484.78;4995308;28;20044;-68
2021/11/12 01:18:36;;;;;;;52.63;18.10;;;;;;;-145.18;100.00;60484.78;4987673;28;20105;-69
2021/11/12 01:21:04;;;;;;;49.37;17.37;;;;;;;-145.18;100.00;60484.78;4997776;28;20040;-68
2021/11/12 01:23:30;;;;;;;46.63;16.80;;;;;;;-145.18;100.00;60484.78;4997789;28;20054;-68
2021/11/12 01:25:55;;;;;;;53.33;18.40;;;;;;;-145.18;100.00;60484.78;4985460;28;20037;-68
2021/11/12 01:28:20;;;;;;;43.77;17.77;;;;;;;-145.18;100.00;60484.78;4987870;28;20049;-68
2021/11/12 01:30:46;;;;;;;43.90;17.80;;;;;;;-145.18;100.00;60484.78;5018392;28;20440;-68
2021/11/12 01:33:12;;;;;;;44.87;17.53;;;;;;;-145.18;100.00;60484.78;5039721;28;20395;-68
2021/11/12 01:35:38;;;;;;;55.73;18.50;;;;;;;-145.18;100.00;60484.78;5035689;28;20143;-68
2021/11/12 01:38:04;;;;;;;44.80;18.77;;;;;;;-145.18;100.00;60484.78;5039974;28;20024;-68
2021/11/12 01:40:30;;;;;;;50.97;18.20;;;;;;;-145.18;100.00;60484.78;5040004;28;20064;-68
2021/11/12 01:43:11;;;;;;;46.47;17.37;;;;;;;-145.18;100.00;60484.78;5038819;28;20045;-68
2021/11/12 01:46:05;;;;;;;50.73;18.47;;;;;;;-145.18;100.00;60484.78;5039295;28;20493;-68
2021/11/12 01:48:56;;;;;;;50.57;18.40;;;;;;;-145.18;100.00;60484.78;5036603;28;20108;-68
2021/11/12 01:53:55;;;;;;;55.37;19.63;;;;;;;-145.18;100.00;60484.78;5040036;28;20033;-68
2021/11/12 02:01:31;;;;;;;57.90;20.40;;;;;;;-145.18;100.00;60484.78;5039763;28;20207;-65
2021/11/12 02:03:57;;;;;;;52.83;19.93;;;;;;;-145.18;100.00;60484.78;5045679;28;20048;-65
2021/11/12 02:06:23;;;;;;;53.87;19.37;;;;;;;-145.18;100.00;60484.78;5079303;28;20054;-65
2021/11/12 02:08:50;;;;;;;51.00;19.23;;;;;;;-145.18;100.00;60484.78;5074886;28;20028;-65
2021/11/12 02:11:17;;;;;;;49.43;18.57;;;;;;;-145.18;100.00;60484.78;5077116;28;20249;-65
2021/11/12 02:13:43;;;;;;;56.83;19.13;;;;;;;-145.18;100.00;60484.78;5079188;28;20035;-65
2021/11/12 02:16:17;;;;;;;57.30;19.60;;;;;;;-145.18;100.00;60484.78;5077616;28;20428;-65
2021/11/12 02:18:44;;;;;;;52.07;18.77;;;;;;;-145.18;100.00;60484.78;5076909;28;20412;-65
2021/11/12 02:21:31;;;;;;;51.93;19.23;;;;;;;-145.18;100.00;60484.78;5078852;28;20067;-65
2021/11/12 02:24:02;;;;;;;52.90;18.67;;;;;;;-145.18;100.00;60484.78;5065657;28;20060;-65
2021/11/12 02:26:29;;;;;;;49.67;19.07;;;;;;;-145.18;100.00;60484.78;5076636;28;20138;-65
2021/11/12 02:28:58;;;;;;;64.97;20.00;;;;;;;-145.18;100.00;60484.78;5077975;28;20293;-65
2021/11/12 02:31:27;;;;;;;51.13;19.93;;;;;;;-145.18;100.00;60484.78;5072076;28;20101;-65
2021/11/12 02:33:54;;;;;;;56.20;21.10;;;;;;;-145.18;100.00;60484.78;5071128;28;20104;-65
2021/11/12 02:36:20;;;;;;;56.13;21.33;;;;;;;-145.18;100.00;60484.78;5061732;28;20039;-65
2021/11/12 02:38:51;;;;;;;54.37;19.73;;;;;;;-145.18;100.00;60484.78;5073154;28;20479;-65
2021/11/12 02:41:17;;;;;;;55.77;19.87;;;;;;;-145.18;100.00;60484.78;5073271;28;20024;-65
2021/11/12 02:43:47;;;;;;;58.83;19.30;;;;;;;-145.18;100.00;60484.78;5075907;28;20061;-65
2021/11/12 02:46:16;;;;;;;59.53;19.37;;;;;;;-145.18;100.00;60484.78;5072513;28;20040;-65
2021/11/12 02:48:42;;;;;;;57.67;20.50;;;;;;;-145.18;100.00;60484.78;5067508;28;20381;-65
2021/11/12 02:51:16;;;;;;;61.30;20.90;;;;;;;-145.18;100.00;60484.78;5076369;28;20621;-65
2021/11/12 02:53:42;;;;;;;58.17;19.77;;;;;;;-145.18;100.00;60484.78;5067209;28;20099;-65
2021/11/12 02:56:29;;;;;;;58.10;20.23;;;;;;;-145.18;100.00;60484.78;5077710;28;20384;-65
2021/11/12 02:59:02;;;;;;;72.80;21.20;;;;;;;-145.18;100.00;60484.78;5076430;28;20508;-65
2021/11/12 03:01:29;;;;;;;68.03;21.60;;;;;;;-145.18;100.00;60484.78;5077329;28;20412;-65
2021/11/12 03:03:56;;;;;;;60.93;19.10;;;;;;;-145.18;100.00;60484.78;5067816;28;20045;-65
2021/11/12 03:06:23;;;;;;;68.73;19.67;;;;;;;-145.18;100.00;60484.78;5075359;28;20479;-65
2021/11/12 03:08:49;;;;;;;57.03;20.60;;;;;;;-145.18;100.00;60484.78;5078187;28;20031;-65
2021/11/12 03:11:15;;;;;;;62.40;20.70;;;;;;;-145.18;100.00;60484.78;5069032;28;20047;-65
2021/11/12 03:13:41;;;;;;;62.77;20.90;;;;;;;-145.18;100.00;60484.78;5069599;28;20180;-65
2021/11/12 03:16:07;;;;;;;67.77;21.23;;;;;;;-145.18;100.00;60484.78;5073853;28;20169;-65
2021/11/12 03:18:33;;;;;;;68.50;20.47;;;;;;;-145.18;100.00;60484.78;5064155;28;20282;-65
2021/11/12 03:21:01;;;;;;;55.70;20.03;;;;;;;-145.18;100.00;60484.78;5071320;28;20548;-65
2021/11/12 03:23:33;;;;;;;68.70;20.90;;;;;;;-145.18;100.00;60484.78;5074198;28;20028;-65
2021/11/12 03:26:25;;;;;;;64.78;20.58;;;;;;;-145.18;100.00;60484.78;5070517;28;20308;-65
2021/11/12 04:00:45;;;;;;;71.73;20.90;;;;;;;-145.18;100.00;60484.78;5069958;28;20742;-67
2021/11/12 04:19:43;;;;;;;67.80;19.57;;;;;;;-145.18;100.00;60484.78;5077407;28;20120;-67
2021/11/12 05:13:30;;;;;;;73.80;20.10;;;;;;;-145.18;100.00;60484.78;5044673;28;20032;-67
2021/11/12 05:56:45;;;;;;;58.23;16.67;;;;;;;-145.18;100.00;60484.78;5080426;28;20085;-68
2021/11/12 05:59:12;;;;;;;60.73;17.07;;;;;;;-145.18;100.00;60484.78;5079671;28;20054;-68
2021/11/12 06:01:39;;;;;;;67.60;18.73;;;;;;;-145.18;100.00;60484.78;5079040;28;20168;-66
2021/11/12 06:04:05;;;;;;;53.70;15.50;;;;;;;-145.18;100.00;60484.78;5079480;28;20036;-66
2021/11/12 06:06:32;;;;;;;59.27;18.57;;;;;;;-145.18;100.00;60484.78;5075174;28;20088;-66
2021/11/12 06:08:58;;;;;;;62.83;17.57;;;;;;;-145.18;100.00;60484.78;5076323;28;20027;-68
2021/11/12 06:11:27;;;;;;;68.57;18.43;;;;;;;-145.18;100.00;60484.78;5079504;28;20185;-68
2021/11/12 06:13:53;;;;;;;52.53;16.97;;;;;;;-145.18;100.00;60484.78;5076358;28;20258;-68
2021/11/12 06:16:18;;;;;;;60.70;18.27;;;;;;;-145.18;100.00;60484.78;5072474;28;20050;-68
2021/11/12 06:18:44;;;;;;;58.73;17.07;;;;;;;-145.18;100.00;60484.78;5076564;28;20034;-68
2021/11/12 06:21:11;;;;;;;58.73;17.20;;;;;;;-145.18;100.00;60484.78;5079507;28;20036;-68
2021/11/12 06:23:37;;;;;;;57.60;16.80;;;;;;;-145.18;100.00;60484.78;5079589;28;20100;-68
2021/11/12 06:26:03;;;;;;;55.53;17.30;;;;;;;-145.18;100.00;60484.78;5079125;28;20464;-68
2021/11/12 06:28:29;;;;;;;54.73;16.30;;;;;;;-145.18;100.00;60484.78;5079808;28;20306;-68
2021/11/12 06:30:56;;;;;;;55.67;18.27;;;;;;;-145.18;100.00;60484.78;5075554;28;20199;-68
2021/11/12 06:33:23;;;;;;;46.30;15.47;;;;;;;-145.18;100.00;60484.78;5075214;28;20273;-67
2021/11/12 06:35:48;;;;;;;53.43;16.20;;;;;;;-145.18;100.00;60484.78;5079429;28;20027;-66
2021/11/12 06:38:18;;;;;;;67.27;17.93;;;;;;;-145.18;100.00;60484.78;5077833;28;20028;-66
2021/11/12 06:40:44;;;;;;;51.10;16.03;;;;;;;-145.18;100.00;60484.78;5077658;28;20360;-66
2021/11/12 06:43:25;;;;;;;55.03;16.90;;;;;;;-145.18;100.00;60484.78;5073181;28;20112;-66
2021/11/12 06:51:22;;;;;;;49.00;16.83;;;;;;;-145.18;100.00;60484.78;5076167;28;20290;-67
2021/11/12 06:53:48;;;;;;;50.77;16.43;;;;;;;-145.18;100.00;60484.78;5079631;28;20020;-68
2021/11/12 06:56:13;;;;;;;51.17;16.27;;;;;;;-145.18;100.00;60484.78;5079192;28;20032;-68
2021/11/12 06:58:40;;;;;;;50.00;15.87;;;;;;;-145.18;100.00;60484.78;5079473;28;20403;-68
2021/11/12 07:01:06;;;;;;;41.20;15.60;;;;;;;-145.18;100.00;60484.78;5078068;28;20019;-67
2021/11/12 07:03:32;;;;;;;49.90;16.87;;;;;;;-145.18;100.00;60484.78;5078871;28;20026;-68
2021/11/12 07:05:58;;;;;;;43.83;16.10;;;;;;;-145.18;100.00;60484.78;5079356;28;20297;-67
2021/11/12 07:08:23;;;;;;;52.07;16.70;;;;;;;-145.18;100.00;60484.78;5061267;28;20425;-68
2021/11/12 07:10:52;;;;;;;44.10;15.83;;;;;;;-145.18;100.00;60484.78;5076459;28;20231;-68
2021/11/12 07:13:28;;;;;;;52.23;17.70;;;;;;;-145.18;100.00;60484.78;5079239;28;20039;-69
2021/11/12 07:15:56;;;;;;;43.67;15.77;;;;;;;-145.18;100.00;60484.78;5078545;28;20496;-69
2021/11/12 07:18:24;;;;;;;53.23;17.57;;;;;;;-145.18;100.00;60484.78;5079056;28;20016;-67
2021/11/12 07:20:51;;;;;;;51.17;17.77;;;;;;;-145.18;100.00;60484.78;5078928;28;20504;-67
2021/11/12 07:23:19;;;;;;;55.00;17.17;;;;;;;-145.18;100.00;60484.78;5078950;28;20054;-67
2021/11/12 07:25:45;;;;;;;47.77;15.53;;;;;;;-145.18;100.00;60484.78;5078251;28;20258;-65
2021/11/12 07:28:10;;;;;;;46.87;16.33;;;;;;;-145.18;100.00;60484.78;5075287;28;20097;-66
2021/11/12 07:30:40;;;;;;;46.87;16.53;;;;;;;-145.18;100.00;60484.78;5078172;28;20028;-66
2021/11/12 07:33:06;;;;;;;47.37;17.03;;;;;;;-145.18;100.00;60484.78;5079095;28;20016;-66
2021/11/12 07:35:36;;;;;;;46.50;16.60;;;;;;;-145.18;100.00;60484.78;5078765;28;20028;-66
2021/11/12 07:38:10;;;;;;;47.73;18.23;;;;;;;-145.18;100.00;60484.78;5078484;28;20047;-66
2021/11/12 07:40:48;;;;;;;55.77;19.23;;;;;;;-145.18;100.00;60484.78;5078431;28;20626;-66
2021/11/12 07:45:54;;;;;;;45.10;16.43;;;;;;;-145.18;100.00;60484.78;5078466;28;20508;-66
2021/11/12 07:48:19;;;;;;;48.93;17.10;;;;;;;-145.18;100.00;60484.78;5078418;28;20028;-66
2021/11/12 07:50:45;;;;;;;43.53;16.17;;;;;;;-145.18;100.00;60484.78;5077996;28;20032;-66
2021/11/12 07:53:10;;;;;;;43.47;16.00;;;;;;;-145.18;100.00;60484.78;5078727;28;20020;-65
2021/11/12 07:55:36;;;;;;;35.93;13.67;;;;;;;-145.18;100.00;60484.78;5077880;28;20223;-65
2021/11/12 07:58:01;;;;;;;38.37;14.53;;;;;;;-145.18;100.00;60484.78;5078467;28;20246;-65
2021/11/12 08:00:27;;;;;;;36.03;13.73;;;;;;;-145.18;100.00;60484.78;5078204;28;20458;-65
2021/11/12 08:02:54;;;;;;;36.33;14.00;;;;;;;-145.18;100.00;60484.78;5077819;28;20051;-66
2021/11/12 08:05:24;;;;;;;35.83;13.27;;;;;;;-145.18;100.00;60484.78;5078059;28;20052;-66
2021/11/12 08:07:52;;;;;;;38.43;14.13;;;;;;;-145.18;100.00;60484.78;5078316;28;20180;-66
2021/11/12 08:10:21;;;;;;;29.97;11.97;;;;;;;-145.18;100.00;60484.78;5075539;28;20115;-66
2021/11/12 08:13:00;;;;;;;30.47;12.20;;;;;;;-145.18;100.00;60484.78;5078586;28;20025;-66
2021/11/12 08:23:24;;;;;;;27.70;11.20;;;;;;;-145.18;100.00;60484.78;4995494;28;20444;-67
2021/11/12 08:26:04;;;;;;;41.13;11.70;;;;;;;-145.18;100.00;60484.78;4995718;28;20041;-70
2021/11/12 08:29:00;;;;;;;26.70;11.40;;;;;;;-145.18;100.00;60484.78;4995572;28;20300;-70
2021/11/12 08:31:31;;;;;;;29.27;10.67;;;;;;;-145.18;100.00;60484.78;4994889;28;20296;-70
2021/11/12 08:34:07;;;;;;;26.37;10.57;;;;;;;-145.18;100.00;60484.78;4995362;28;20034;-70
2021/11/12 08:39:11;;;;;;;28.60;11.33;;;;;;;-145.18;100.00;60484.78;4999091;28;20034;-70
2021/11/12 08:44:14;;;;;;;32.00;11.53;;;;;;;-145.18;100.00;60484.78;4997261;28;20025;-70
2021/11/12 08:46:54;;;;;;;29.93;11.57;;;;;;;-145.18;100.00;60484.78;4994651;28;20034;-70
2021/11/12 08:49:27;;;;;;;32.77;11.97;;;;;;;-145.18;100.00;60484.78;4997641;28;20040;-70
2021/11/12 08:51:53;;;;;;;31.47;11.70;;;;;;;-145.18;100.00;60484.78;5005287;28;20069;-70
2021/11/12 08:54:24;;;;;;;36.37;13.03;;;;;;;-145.18;100.00;60484.78;4998666;28;20518;-70
2021/11/12 08:56:50;;;;;;;35.25;12.35;;;;;;;-145.18;100.00;60484.78;4998057;28;20131;-70
2021/11/12 08:59:15;;;;;;;32.10;12.30;;;;;;;-145.18;100.00;60484.78;4986946;28;20483;-70
2021/11/12 09:01:42;;;;;;;38.63;12.00;;;;;;;-145.18;100.00;60484.78;5073539;28;20039;-70
2021/11/12 09:04:07;;;;;;;29.43;10.77;;;;;;;-145.18;100.00;60484.78;5081094;28;20327;-70
2021/11/12 09:06:32;;;;;;;29.90;10.73;;;;;;;-145.18;100.00;60484.78;5079963;28;20352;-70
2021/11/12 09:08:58;;;;;;;35.07;11.63;;;;;;;-145.18;100.00;60484.78;5081528;28;20510;-70
2021/11/12 09:11:24;;;;;;;27.43;9.77;;;;;;;-145.18;100.00;60484.78;5078110;28;20055;-70
2021/11/12 09:13:56;;;;;;;28.00;10.13;;;;;;;-145.18;100.00;60484.78;5081438;28;20035;-70
2021/11/12 09:16:30;;;;;;;22.67;9.10;;;;;;;-145.18;100.00;60484.78;5080744;28;20023;-72
2021/11/12 09:18:56;;;;;;;25.43;9.57;;;;;;;-145.18;100.00;60484.78;5081478;28;20129;-69
2021/11/12 09:21:21;;;;;;;23.00;9.93;;;;;;;-145.18;100.00;60484.78;5069299;28;20024;-69
2021/11/12 09:23:47;;;;;;;19.30;7.70;;;;;;;-145.18;100.00;60484.78;5081050;28;20035;-69
2021/11/12 09:26:13;;;;;;;19.13;7.13;;;;;;;-145.18;100.00;60484.78;5080967;28;20024;-69
2021/11/12 09:28:38;;;;;;;19.90;7.60;;;;;;;-145.18;100.00;60484.78;5080996;28;20020;-69
2021/11/12 09:31:08;;;;;;;21.63;7.67;;;;;;;-145.18;100.00;60484.78;5079874;28;20047;-69
2021/11/12 09:33:33;;;;;;;19.43;7.53;;;;;;;-145.18;100.00;60484.78;5080340;28;20035;-69
2021/11/12 09:36:00;;;;;;;19.67;7.53;;;;;;;-145.18;100.00;60484.78;5080239;28;20103;-69
2021/11/12 09:38:26;;;;;;;23.73;8.47;;;;;;;-145.18;100.00;60484.78;5080855;28;20016;-70
2021/11/12 09:40:53;;;;;;;21.17;7.87;;;;;;;-145.18;100.00;60484.78;5080366;28;20134;-70
2021/11/12 09:43:18;;;;;;;24.40;8.40;;;;;;;-145.18;100.00;60484.78;5080806;28;20028;-70
2021/11/12 09:45:44;;;;;;;20.63;7.63;;;;;;;-145.18;100.00;60484.78;5079586;28;20039;-70
2021/11/12 09:48:10;;;;;;;19.80;7.77;;;;;;;-145.18;100.00;60484.78;5076228;28;20508;-70
2021/11/12 09:50:37;;;;;;;21.00;8.20;;;;;;;-145.18;100.00;60484.78;5080181;28;20032;-70
2021/11/12 09:53:02;;;;;;;23.80;8.50;;;;;;;-145.18;100.00;60484.78;5080539;28;20508;-70
2021/11/12 09:55:30;;;;;;;21.73;8.33;;;;;;;-145.18;100.00;60484.78;5080239;28;20324;-70
2021/11/12 09:57:57;;;;;;;19.17;7.87;;;;;;;-145.18;100.00;60484.78;5079996;28;20337;-70
2021/11/12 10:00:26;;;;;;;18.63;7.63;;;;;;;-145.18;100.00;60484.78;5079696;28;20016;-70
2021/11/12 10:02:53;;;;;;;16.40;7.90;;;;;;;-145.18;100.00;60484.78;5080191;28;20123;-70
2021/11/12 10:05:42;;;;;;;20.20;7.70;;;;;;;-145.18;100.00;60484.78;5079349;28;20063;-70
2021/11/12 10:08:40;;;;;;;19.20;7.93;;;;;;;-145.18;100.00;60484.78;5080030;28;20039;-70
2021/11/12 10:11:09;;;;;;;20.50;7.40;;;;;;;-145.18;100.00;60484.78;5078800;28;20032;-69
2021/11/12 10:13:42;;;;;;;23.13;8.00;;;;;;;-145.18;100.00;60484.78;5080209;28;20457;-69
2021/11/12 10:16:21;;;;;;;19.47;8.23;;;;;;;-145.18;100.00;60484.78;5079613;28;20194;-69
2021/11/12 10:19:06;;;;;;;18.93;7.73;;;;;;;-145.18;100.00;60484.78;5068110;28;20261;-69
2021/11/12 10:21:50;;;;;;;17.33;7.10;;;;;;;-145.18;100.00;60484.78;5079329;28;20043;-70
2021/11/12 10:24:16;;;;;;;16.60;6.73;;;;;;;-145.18;100.00;60484.78;5080048;28;20047;-70
2021/11/12 10:26:45;;;;;;;17.47;7.00;;;;;;;-145.18;100.00;60484.78;5079159;28;20117;-70
2021/11/12 10:29:14;;;;;;;15.13;7.10;;;;;;;-145.18;100.00;60484.78;5079669;28;20127;-70
2021/11/12 10:31:52;;;;;;;14.20;5.60;;;;;;;-145.18;100.00;60484.78;5079688;28;20491;-70
2021/11/12 10:34:21;;;;;;;15.27;6.47;;;;;;;-145.18;100.00;60484.78;5079517;28;20024;-70
2021/11/12 10:36:52;;;;;;;17.70;6.77;;;;;;;-145.18;100.00;60484.78;5079496;28;20295;-70
2021/11/12 10:39:26;;;;;;;15.90;6.53;;;;;;;-145.18;100.00;60484.78;5079159;28;20024;-70
2021/11/12 10:41:51;;;;;;;14.67;6.13;;;;;;;-145.18;100.00;60484.78;5070475;28;20054;-69
2021/11/12 10:44:17;;;;;;;14.87;6.13;;;;;;;-145.18;100.00;60484.78;5079322;28;20028;-71
2021/11/12 10:46:43;;;;;;;14.90;6.53;;;;;;;-145.18;100.00;60484.78;5079132;28;20266;-71
2021/11/12 10:49:28;;;;;;;14.40;6.40;;;;;;;-145.18;100.00;60484.78;5065756;28;20231;-71
2021/11/12 10:51:57;;;;;;;14.77;6.53;;;;;;;-145.18;100.00;60484.78;5074775;28;20059;-71
2021/11/12 10:54:38;;;;;;;15.23;6.90;;;;;;;-145.18;100.00;60484.78;5065673;28;20412;-71
2021/11/12 10:57:04;;;;;;;11.77;5.50;;;;;;;-145.18;100.00;60484.78;5079161;28;20545;-71
2021/11/12 10:59:30;;;;;;;12.87;6.10;;;;;;;-145.18;100.00;60484.78;5078815;28;20492;-71
2021/11/12 11:01:55;;;;;;;14.60;5.87;;;;;;;-145.18;100.00;60484.78;5078825;28;20034;-70
2021/11/12 11:04:22;;;;;;;12.70;5.77;;;;;;;-145.18;100.00;60484.78;5077957;28;20224;-70
2021/11/12 11:06:49;;;;;;;10.77;5.13;;;;;;;-145.18;100.00;60484.78;5075228;28;20030;-70
2021/11/12 11:09:15;;;;;;;13.47;6.20;;;;;;;-145.18;100.00;60484.78;5077335;28;20028;-70
2021/11/12 11:11:42;;;;;;;11.60;5.13;;;;;;;-145.18;100.00;60484.78;5078105;28;20508;-70
2021/11/12 11:14:31;;;;;;;11.77;5.60;;;;;;;-145.18;100.00;60484.78;5079252;28;20028;-70
2021/11/12 11:17:27;;;;;;;11.40;5.30;;;;;;;-145.18;100.00;60484.78;5076686;28;20554;-70
2021/11/12 11:19:53;;;;;;;9.53;4.63;;;;;;;-145.18;100.00;60484.78;5075418;28;20426;-70
2021/11/12 11:22:19;;;;;;;9.77;4.57;;;;;;;-145.18;100.00;60484.78;5079066;28;20031;-70
2021/11/12 11:24:48;;;;;;;9.73;4.60;;;;;;;-145.18;100.00;60484.78;5078609;28;20166;-70
2021/11/12 11:27:13;;;;;;;10.80;4.83;;;;;;;-145.18;100.00;60484.78;5079286;28;20040;-70
2021/11/12 11:29:39;;;;;;;9.60;4.67;;;;;;;-145.18;100.00;60484.78;5078969;28;20674;-70
2021/11/12 11:32:06;;;;;;;7.63;4.10;;;;;;;-145.18;100.00;60484.78;5078732;28;20108;-70
2021/11/12 11:34:34;;;;;;;12.73;5.13;;;;;;;-145.18;100.00;60484.78;5078606;28;20388;-70
2021/11/12 11:37:03;;;;;;;9.60;4.80;;;;;;;-145.18;100.00;60484.78;5079082;28;20028;-70
2021/11/12 11:39:30;;;;;;;9.30;4.50;;;;;;;-145.18;100.00;60484.78;5078647;28;20052;-70
2021/11/12 11:42:02;;;;;;;10.97;5.10;;;;;;;-145.18;100.00;60484.78;5078950;28;20051;-70
2021/11/12 11:44:27;;;;;;;11.50;4.82;;;;;;;-145.18;100.00;60484.78;5078406;28;20028;-70
2021/11/12 11:46:56;;;;;;;8.90;4.30;;;;;;;-145.18;100.00;60484.78;5078523;28;20031;-70
2021/11/12 11:49:24;;;;;;;9.10;4.40;;;;;;;-145.18;100.00;60484.78;5078168;28;20425;-70
2021/11/12 11:51:55;;;;;;;9.37;4.23;;;;;;;-145.18;100.00;60484.78;5079087;28;20089;-70
2021/11/12 11:54:28;;;;;;;8.43;4.40;;;;;;;-145.18;100.00;60484.78;5078398;28;20024;-70
2021/11/12 11:56:59;;;;;;;11.00;4.80;;;;;;;-145.18;100.00;60484.78;5073070;28;20362;-70
2021/11/12 11:59:35;;;;;;;9.25;4.15;;;;;;;-145.18;100.00;60484.78;5078385;28;20024;-70
2021/11/12 12:02:05;;;;;;;10.10;4.80;;;;;;;-145.18;100.00;60484.78;5078656;28;20191;-70
2021/11/12 12:04:40;;;;;;;8.50;4.20;;;;;;;-145.18;100.00;60484.78;5078002;28;20101;-70
2021/11/12 12:07:10;;;;;;;11.97;4.80;;;;;;;-145.18;100.00;60484.78;5078649;28;20173;-70
2021/11/12 12:10:03;;;;;;;8.20;4.30;;;;;;;-145.18;100.00;60484.78;5075190;28;20039;-70
2021/11/12 12:12:31;;;;;;;11.57;5.07;;;;;;;-145.18;100.00;60484.78;5069851;28;20214;-70
2021/11/12 12:15:05;;;;;;;7.50;4.00;;;;;;;-145.18;100.00;60484.78;5081996;28;21125;-70
2021/11/12 12:17:34;;;;;;;7.77;3.93;;;;;;;-145.18;100.00;60484.78;5082355;28;20024;-70
2021/11/12 13:22:40;;;;;;;8.67;4.03;;;;;;;-145.18;100.00;60484.78;5077346;28;20547;-71
2021/11/12 13:25:11;;;;;;;9.23;4.10;;;;;;;-145.18;100.00;60484.78;5080764;28;20028;-71
2021/11/12 13:27:37;;;;;;;10.37;4.53;;;;;;;-145.18;100.00;60484.78;5081540;28;20013;-71
2021/11/12 13:30:06;;;;;;;10.27;4.43;;;;;;;-145.18;100.00;60484.78;5080385;28;20215;-71
2021/11/12 13:32:39;;;;;;;9.83;4.80;;;;;;;-145.18;100.00;60484.78;5080698;28;20070;-71
2021/11/12 13:35:05;;;;;;;10.23;4.37;;;;;;;-145.18;100.00;60484.78;5080004;28;20085;-71
2021/11/12 13:37:31;;;;;;;9.87;4.70;;;;;;;-145.18;100.00;60484.78;5080300;28;20266;-71
2021/11/12 13:40:05;;;;;;;8.77;4.37;;;;;;;-145.18;100.00;60484.78;5079868;28;20073;-71
2021/11/12 13:42:52;;;;;;;11.57;4.67;;;;;;;-145.18;100.00;60484.78;5071527;28;20733;-71
2021/11/12 13:45:23;;;;;;;11.23;4.80;;;;;;;-145.18;100.00;60484.78;5069468;28;20408;-71
2021/11/12 13:48:14;;;;;;;8.35;4.15;;;;;;;-145.18;100.00;60484.78;5074868;28;20113;-71
2021/11/12 13:50:50;;;;;;;11.13;4.70;;;;;;;-145.18;100.00;60484.78;5072005;28;20059;-71
2021/11/12 13:53:16;;;;;;;10.83;5.10;;;;;;;-145.18;100.00;60484.78;5074448;28;20073;-71
2021/11/12 13:55:42;;;;;;;9.33;4.53;;;;;;;-145.18;100.00;60484.78;5076533;28;20023;-71
2021/11/12 13:58:08;;;;;;;11.23;5.20;;;;;;;-145.18;100.00;60484.78;5061035;28;20119;-71
2021/11/12 14:00:35;;;;;;;13.30;5.30;;;;;;;-145.18;100.00;60484.78;5074011;28;20449;-71
2021/11/12 14:03:05;;;;;;;10.83;5.03;;;;;;;-145.18;100.00;60484.78;5079087;28;20115;-71
2021/11/12 14:05:32;;;;;;;13.60;4.90;;;;;;;-145.18;100.00;60484.78;5079322;28;20496;-71
2021/11/12 14:08:10;;;;;;;11.93;5.20;;;;;;;-145.18;100.00;60484.78;5079796;28;20048;-71
2021/11/12 14:10:44;;;;;;;10.53;4.83;;;;;;;-145.18;100.00;60484.78;5079086;28;20036;-71
2021/11/12 14:13:14;;;;;;;11.20;5.03;;;;;;;-145.18;100.00;60484.78;5077737;28;20096;-71
2021/11/12 14:15:44;;;;;;;11.30;5.30;;;;;;;-145.18;100.00;60484.78;5078430;28;20040;-71
2021/11/12 14:21:28;;;;;;;12.47;5.17;;;;;;;-145.18;100.00;60484.78;5073120;28;20416;-71
2021/11/12 14:29:55;;;;;;;14.30;5.60;;;;;;;-145.18;100.00;60484.78;4998662;28;20274;-71
2021/11/12 14:45:42;;;;;;;14.97;6.50;;;;;;;-145.18;100.00;60484.78;4992004;28;20100;-71
2021/11/12 14:51:07;;;;;;;14.73;6.70;;;;;;;-145.18;100.00;60484.78;4995060;28;20239;-71
2021/11/12 14:53:55;;;;;;;13.33;6.50;;;;;;;-145.18;100.00;60484.78;4986714;28;20242;-71
2021/11/12 14:56:28;;;;;;;15.57;6.67;;;;;;;-145.18;100.00;60484.78;4994553;28;20037;-71
2021/11/12 14:59:05;;;;;;;14.83;6.77;;;;;;;-145.18;100.00;60484.78;4994283;28;20048;-71
2021/11/12 15:01:32;;;;;;;18.80;7.73;;;;;;;-145.18;100.00;60484.78;4995023;28;20049;-71
2021/11/12 15:03:59;;;;;;;14.73;6.77;;;;;;;-145.18;100.00;60484.78;4995737;28;20058;-70
2021/11/12 15:06:27;;;;;;;14.00;6.63;;;;;;;-145.18;100.00;60484.78;5036631;28;20300;-71
2021/11/12 15:09:03;;;;;;;13.70;6.70;;;;;;;-145.18;100.00;60484.78;5058675;28;20256;-71
2021/11/12 15:11:30;;;;;;;19.80;7.27;;;;;;;-145.18;100.00;60484.78;5055576;28;20254;-71
2021/11/12 15:14:14;;;;;;;17.77;7.30;;;;;;;-145.18;100.00;60484.78;5058854;28;20063;-71
2021/11/12 15:16:41;;;;;;;18.37;7.90;;;;;;;-145.18;100.00;60484.78;5057710;28;20266;-71
2021/11/12 15:19:11;;;;;;;16.67;7.53;;;;;;;-145.18;100.00;60484.78;5058867;28;20389;-71
2021/11/12 15:21:57;;;;;;;17.47;8.47;;;;;;;-145.18;100.00;60484.78;5058201;28;20115;-71
2021/11/12 15:24:43;;;;;;;19.40;8.47;;;;;;;-145.18;100.00;60484.78;5058008;28;20708;-71
2021/11/12 15:27:20;;;;;;;23.47;9.03;;;;;;;-145.18;100.00;60484.78;5055115;28;20086;-71
2021/11/12 15:30:23;;;;;;;20.83;8.47;;;;;;;-145.18;100.00;60484.78;5057514;28;20225;-71
2021/11/12 15:32:39;;;;;;;21.37;8.63;;;;;;;-145.18;100.00;60484.78;5054337;28;20144;-71
2021/11/12 15:35:10;;;;;;;19.67;8.77;;;;;;;-145.18;100.00;60484.78;5058242;28;20424;-71
2021/11/12 15:40:32;;;;;;;18.93;8.43;;;;;;;-145.18;100.00;60484.78;5058109;28;20103;-71
2021/11/12 15:45:38;;;;;;;20.87;8.70;;;;;;;-145.18;100.00;60484.78;5058451;28;20027;-71
2021/11/12 15:48:09;;;;;;;22.73;9.00;;;;;;;-145.18;100.00;60484.78;5057724;28;20122;-71
2021/11/12 15:53:12;;;;;;;22.80;10.27;;;;;;;-145.18;100.00;60484.78;5058427;28;20465;-70
2021/11/12 15:56:26;;;;;;;19.53;8.90;;;;;;;-145.18;100.00;60484.78;5057635;28;20040;-70
2021/11/12 16:24:47;;;;;;;23.73;10.73;;;;;;;-145.18;100.00;60484.78;5008559;28;20045;-70